Time;durP1;ratioP1;P1;durP2;ratioP2;P2;SDS_P1;SDS_P2;PMS_P1;PMS_P2;Temp;Humidity;BMP_temperature;BMP_pressure;BME280_temperature;BME280_humidity;BME280_pressure;Samples;Min_cycle;Max_cycle;Signal;HPM_P1;HPM_P2
2021/12/22 00:02:28;;;;;;;;;70.00;56.25;;;;;;;;5100909;28;14524;-81
2021/12/22 00:04:54;;;;;;;;;69.50;55.75;;;;;;;;5099843;28;13332;-80
2021/12/22 00:07:19;;;;;;;;;74.75;55.75;;;;;;;;5100338;28;12388;-80
2021/12/22 00:09:45;;;;;;;;;71.25;55.25;;;;;;;;5100866;28;11495;-81
2021/12/22 00:12:11;;;;;;;;;70.25;57.00;;;;;;;;5081409;28;12444;-79
2021/12/22 00:14:36;;;;;;;;;69.75;54.50;;;;;;;;5100087;28;11899;-79
2021/12/22 00:17:02;;;;;;;;;69.50;54.00;;;;;;;;5100292;28;13730;-78
2021/12/22 00:19:27;;;;;;;;;75.50;57.50;;;;;;;;5099426;28;9036;-78
2021/12/22 00:21:53;;;;;;;;;66.50;54.00;;;;;;;;5099180;28;13533;-78
2021/12/22 00:24:18;;;;;;;;;65.50;51.75;;;;;;;;5099629;28;13225;-79
2021/12/22 00:26:43;;;;;;;;;69.25;55.50;;;;;;;;5080811;28;11947;-79
2021/12/22 07:25:00;;;;;;;;;60.50;49.50;;;;;;;;5215699;27;78302;-79
2021/12/22 07:27:26;;;;;;;;;60.50;50.25;;;;;;;;5198703;27;22683;-75
2021/12/22 07:29:51;;;;;;;;;52.50;47.75;;;;;;;;5199531;27;10161;-75
2021/12/22 07:32:16;;;;;;;;;56.25;47.75;;;;;;;;5197867;27;12451;-73
2021/12/22 07:34:46;;;;;;;;;62.00;50.50;;;;;;;;5199090;27;8951;-73
2021/12/22 07:37:31;;;;;;;;;56.33;47.67;;;;;;;;5199317;27;13375;-75
2021/12/22 07:39:57;;;;;;;;;67.75;52.25;;;;;;;;5198964;27;13501;-74
2021/12/22 07:42:22;;;;;;;;;60.00;50.67;;;;;;;;5198941;27;13492;-76
2021/12/22 07:44:47;;;;;;;;;59.00;50.00;;;;;;;;5196676;27;11780;-75
2021/12/22 07:47:12;;;;;;;;;54.00;46.00;;;;;;;;5179170;27;13700;-76
2021/12/22 07:49:38;;;;;;;;;60.67;50.33;;;;;;;;5197929;27;9552;-77
2021/12/22 07:52:03;;;;;;;;;63.67;49.67;;;;;;;;5197854;27;13225;-76
2021/12/22 07:54:28;;;;;;;;;62.00;48.33;;;;;;;;5197384;27;13891;-74
2021/12/22 07:56:54;;;;;;;;;63.67;50.33;;;;;;;;5198600;27;11613;-74
2021/12/22 07:59:19;;;;;;;;;69.33;55.00;;;;;;;;5199196;27;12631;-79
2021/12/22 08:01:44;;;;;;;;;63.67;54.33;;;;;;;;5199266;27;11787;-79
2021/12/22 08:04:10;;;;;;;;;65.67;53.33;;;;;;;;5197568;27;11564;-76
2021/12/22 08:06:35;;;;;;;;;69.33;54.00;;;;;;;;5199190;27;9541;-77
2021/12/22 08:09:00;;;;;;;;;71.75;57.50;;;;;;;;5198555;27;11537;-75
2021/12/22 08:11:26;;;;;;;;;72.67;54.00;;;;;;;;5198751;27;13318;-77
2021/12/22 08:13:51;;;;;;;;;71.75;58.25;;;;;;;;5198410;27;11581;-74
2021/12/22 08:16:16;;;;;;;;;76.00;56.33;;;;;;;;5188775;27;11545;-77
2021/12/22 08:18:42;;;;;;;;;68.00;55.00;;;;;;;;5190691;27;10366;-77
2021/12/22 08:21:07;;;;;;;;;73.00;56.00;;;;;;;;5188106;27;13838;-79
2021/12/22 08:23:32;;;;;;;;;72.00;56.67;;;;;;;;5185830;27;10533;-79
2021/12/22 08:25:58;;;;;;;;;75.33;58.00;;;;;;;;5188203;27;11858;-75
2021/12/22 08:28:23;;;;;;;;;71.00;56.33;;;;;;;;5187010;27;11395;-76
2021/12/22 08:30:51;;;;;;;;;62.67;52.00;;;;;;;;5187133;27;11639;-78
2021/12/22 08:33:21;;;;;;;;;64.00;53.33;;;;;;;;5186141;27;14128;-78
2021/12/22 08:38:53;;;;;;;;;67.33;52.67;;;;;;;;5174762;27;11390;-76
2021/12/22 08:41:18;;;;;;;;;64.67;52.00;;;;;;;;5156107;27;11931;-78
2021/12/22 08:43:44;;;;;;;;;66.67;50.00;;;;;;;;5173323;27;12587;-74
2021/12/22 08:46:09;;;;;;;;;63.33;50.00;;;;;;;;5178767;27;8820;-77
2021/12/22 08:48:34;;;;;;;;;58.00;47.33;;;;;;;;5184207;27;9057;-76
2021/12/22 08:50:59;;;;;;;;;60.00;45.00;;;;;;;;5184047;27;13266;-77
2021/12/22 08:53:25;;;;;;;;;65.00;52.00;;;;;;;;5183299;27;13390;-74
2021/12/22 08:55:50;;;;;;;;;66.67;53.00;;;;;;;;5184292;27;9592;-83
2021/12/22 08:58:15;;;;;;;;;61.00;49.67;;;;;;;;5183410;27;10349;-80
2021/12/22 09:00:41;;;;;;;;;56.33;47.00;;;;;;;;5184011;27;12186;-80
2021/12/22 09:03:06;;;;;;;;;52.67;45.33;;;;;;;;5183478;27;13431;-77
2021/12/22 09:05:31;;;;;;;;;52.00;46.00;;;;;;;;5183346;27;11566;-73
2021/12/22 09:07:56;;;;;;;;;58.67;46.33;;;;;;;;5183433;27;11759;-74
2021/12/22 09:10:22;;;;;;;;;61.67;49.33;;;;;;;;5183279;27;11509;-77
2021/12/22 09:12:47;;;;;;;;;60.00;47.67;;;;;;;;5183556;27;10346;-77
2021/12/22 09:15:13;;;;;;;;;58.33;46.33;;;;;;;;5183958;27;11434;-76
2021/12/22 09:17:38;;;;;;;;;59.67;48.00;;;;;;;;5184335;27;13211;-76
2021/12/22 09:20:03;;;;;;;;;54.33;46.33;;;;;;;;5183858;27;11386;-77
2021/12/22 09:22:29;;;;;;;;;49.00;44.00;;;;;;;;5183431;27;11383;-77
2021/12/22 09:24:54;;;;;;;;;52.67;41.00;;;;;;;;5183150;27;13810;-75
2021/12/22 09:27:19;;;;;;;;;54.00;44.33;;;;;;;;5183586;27;12261;-75
2021/12/22 09:29:45;;;;;;;;;59.00;46.33;;;;;;;;5183362;27;11394;-77
2021/12/22 09:32:14;;;;;;;;;56.00;46.00;;;;;;;;5174321;27;9508;-75
2021/12/22 09:34:40;;;;;;;;;52.00;43.67;;;;;;;;5173241;27;11689;-76
2021/12/22 09:37:06;;;;;;;;;57.33;46.00;;;;;;;;5170127;27;11434;-76
2021/12/22 09:39:31;;;;;;;;;62.00;47.33;;;;;;;;5167030;27;11386;-76
2021/12/22 09:41:56;;;;;;;;;53.67;44.33;;;;;;;;5172230;27;13452;-81
2021/12/22 09:44:23;;;;;;;;;59.67;46.67;;;;;;;;5171373;27;12218;-78
2021/12/22 09:46:52;;;;;;;;;58.33;46.00;;;;;;;;5171102;27;11670;-81
2021/12/22 09:49:45;;;;;;;;;50.67;42.00;;;;;;;;5171406;27;11465;-74
2021/12/22 09:52:17;;;;;;;;;49.67;41.33;;;;;;;;5161797;27;10420;-79
2021/12/22 09:54:43;;;;;;;;;48.67;42.00;;;;;;;;5143284;27;15616;-76
2021/12/22 09:57:09;;;;;;;;;53.33;45.33;;;;;;;;5162973;27;11459;-82
2021/12/22 09:59:35;;;;;;;;;45.00;41.67;;;;;;;;5162060;27;13668;-84
2021/12/22 10:02:01;;;;;;;;;57.33;43.00;;;;;;;;5161892;27;14612;-83
2021/12/22 10:04:27;;;;;;;;;51.67;43.33;;;;;;;;5161942;27;13502;-83
2021/12/22 10:06:53;;;;;;;;;50.67;40.67;;;;;;;;5162601;27;12564;-83
2021/12/22 10:09:22;;;;;;;;;47.67;42.00;;;;;;;;5162655;27;11504;-84
2021/12/22 10:11:48;;;;;;;;;43.33;41.00;;;;;;;;5163377;27;13413;-84
2021/12/22 10:14:21;;;;;;;;;48.67;42.00;;;;;;;;5163503;27;11579;-83
2021/12/22 10:16:48;;;;;;;;;48.00;41.67;;;;;;;;5162253;27;10824;-83
2021/12/22 10:19:13;;;;;;;;;47.00;39.00;;;;;;;;5144837;27;10781;-84
2021/12/22 10:21:52;;;;;;;;;50.33;42.00;;;;;;;;5163041;27;12289;-84
2021/12/22 10:24:17;;;;;;;;;46.67;42.00;;;;;;;;5162561;27;12353;-85
2021/12/22 10:26:43;;;;;;;;;50.00;42.33;;;;;;;;5144487;27;10963;-84
2021/12/22 10:29:08;;;;;;;;;43.00;39.00;;;;;;;;5162788;27;14796;-85
2021/12/22 10:31:41;;;;;;;;;35.50;32.75;;;;;;;;5162409;27;13425;-83
2021/12/22 10:34:07;;;;;;;;;38.00;31.75;;;;;;;;5163890;27;13637;-84
2021/12/22 10:36:52;;;;;;;;;40.50;35.50;;;;;;;;5163355;27;11508;-84
2021/12/22 10:39:20;;;;;;;;;34.00;31.25;;;;;;;;5163587;27;14421;-84
2021/12/22 10:41:46;;;;;;;;;37.75;32.00;;;;;;;;5162546;27;13380;-84
2021/12/22 10:44:11;;;;;;;;;34.25;28.25;;;;;;;;5163583;27;11530;-84
2021/12/22 10:46:36;;;;;;;;;33.50;26.25;;;;;;;;5163994;27;12438;-85
2021/12/22 10:49:15;;;;;;;;;35.50;31.50;;;;;;;;5164577;27;11536;-84
2021/12/22 10:51:42;;;;;;;;;37.50;32.00;;;;;;;;5164907;27;12816;-84
2021/12/22 10:54:10;;;;;;;;;39.25;36.75;;;;;;;;5166373;27;13200;-85
2021/12/22 10:56:36;;;;;;;;;37.25;32.50;;;;;;;;5181009;27;12909;-83
2021/12/22 10:59:02;;;;;;;;;35.75;31.00;;;;;;;;5181201;27;11452;-85
2021/12/22 11:01:27;;;;;;;;;29.25;23.00;;;;;;;;5178241;27;11530;-84
2021/12/22 11:04:01;;;;;;;;;35.00;28.50;;;;;;;;5178893;27;11391;-83
2021/12/22 11:06:29;;;;;;;;;30.25;27.50;;;;;;;;5162534;27;13347;-84
2021/12/22 11:08:56;;;;;;;;;26.00;23.25;;;;;;;;5161473;27;11525;-84
2021/12/22 11:11:22;;;;;;;;;21.00;19.25;;;;;;;;5162181;27;13486;-84
2021/12/22 11:14:00;;;;;;;;;19.50;17.75;;;;;;;;5162563;27;11507;-83
2021/12/22 11:16:25;;;;;;;;;17.25;16.50;;;;;;;;5162523;27;12231;-84
2021/12/22 11:18:51;;;;;;;;;21.00;18.75;;;;;;;;5162817;27;11723;-84
2021/12/22 11:21:30;;;;;;;;;23.50;16.50;;;;;;;;5162488;27;13277;-84
2021/12/22 11:23:56;;;;;;;;;15.00;15.00;;;;;;;;5141898;27;11933;-84
2021/12/22 11:26:21;;;;;;;;;20.00;17.25;;;;;;;;5162062;27;14388;-84
2021/12/22 11:28:47;;;;;;;;;19.00;16.50;;;;;;;;5163022;27;13281;-84
2021/12/22 11:31:12;;;;;;;;;18.00;16.00;;;;;;;;5143546;27;15608;-84
2021/12/22 11:33:39;;;;;;;;;14.25;13.50;;;;;;;;5161947;27;11612;-83
2021/12/22 11:36:06;;;;;;;;;14.50;12.00;;;;;;;;5142766;27;11864;-84
2021/12/22 11:38:33;;;;;;;;;15.00;14.00;;;;;;;;5143626;27;12428;-84
2021/12/22 11:43:53;;;;;;;;;16.25;16.25;;;;;;;;5147486;27;11447;-79
2021/12/22 11:46:20;;;;;;;;;17.75;17.00;;;;;;;;5141431;27;11569;-77
2021/12/22 11:48:48;;;;;;;;;17.25;13.00;;;;;;;;5161558;27;11656;-77
2021/12/22 11:51:26;;;;;;;;;17.00;13.50;;;;;;;;5160759;27;11474;-79
2021/12/22 11:53:56;;;;;;;;;12.25;12.25;;;;;;;;5161495;27;11506;-87
2021/12/22 11:56:40;;;;;;;;;12.00;9.50;;;;;;;;5143458;27;12202;-86
2021/12/22 11:59:06;;;;;;;;;10.25;8.00;;;;;;;;5162533;27;21605;-88
2021/12/22 12:01:31;;;;;;;;;5.00;5.00;;;;;;;;5170829;27;11448;-82
2021/12/22 12:04:13;;;;;;;;;9.50;7.25;;;;;;;;5180927;27;22643;-80
2021/12/22 12:06:48;;;;;;;;;8.75;6.50;;;;;;;;5181015;27;11687;-80
2021/12/22 12:09:14;;;;;;;;;6.50;5.25;;;;;;;;5181133;27;11736;-83
2021/12/22 12:11:55;;;;;;;;;5.00;5.00;;;;;;;;5184486;27;11631;-81
2021/12/22 12:23:13;;;;;;;;;3.00;3.00;;;;;;;;5184786;27;11443;-80
2021/12/22 12:25:39;;;;;;;;;3.00;3.00;;;;;;;;5176505;27;11487;-79
2021/12/22 12:28:15;;;;;;;;;4.50;2.00;;;;;;;;5163009;27;12252;-79
2021/12/22 12:30:46;;;;;;;;;5.50;4.50;;;;;;;;5173010;27;10535;-78
2021/12/22 12:33:12;;;;;;;;;5.25;3.00;;;;;;;;5172741;27;12632;-78
2021/12/22 12:35:47;;;;;;;;;5.00;5.00;;;;;;;;5183381;27;11478;-78
2021/12/22 12:38:16;;;;;;;;;5.75;2.75;;;;;;;;5184012;27;11509;-76
2021/12/22 12:41:06;;;;;;;;;3.00;3.00;;;;;;;;5183909;27;12266;-77
2021/12/22 12:43:53;;;;;;;;;2.50;2.50;;;;;;;;5183998;27;11562;-78
2021/12/22 12:46:18;;;;;;;;;2.25;2.25;;;;;;;;5183418;27;11612;-80
2021/12/22 12:48:44;;;;;;;;;2.75;2.75;;;;;;;;5184147;27;11419;-82
2021/12/22 12:51:13;;;;;;;;;4.25;3.00;;;;;;;;5184315;27;8808;-79
2021/12/22 12:53:39;;;;;;;;;5.25;5.25;;;;;;;;5183926;27;12973;-77
2021/12/22 12:56:07;;;;;;;;;4.25;4.25;;;;;;;;5158514;27;12964;-75
2021/12/22 12:58:32;;;;;;;;;9.00;7.50;;;;;;;;5164408;27;11556;-78
2021/12/22 13:00:58;;;;;;;;;5.75;5.75;;;;;;;;5178855;27;11875;-77
2021/12/22 13:03:23;;;;;;;;;9.00;8.75;;;;;;;;5183487;27;12681;-77
2021/12/22 13:05:51;;;;;;;;;5.25;5.25;;;;;;;;5182860;27;10436;-77
2021/12/22 13:08:16;;;;;;;;;4.75;4.00;;;;;;;;5180269;27;10330;-75
2021/12/22 13:10:48;;;;;;;;;5.00;5.00;;;;;;;;5180147;27;11526;-76
2021/12/22 13:13:18;;;;;;;;;6.00;5.00;;;;;;;;5183026;27;10513;-77
2021/12/22 13:15:47;;;;;;;;;6.00;5.00;;;;;;;;5183405;27;11530;-77
2021/12/22 13:18:14;;;;;;;;;7.50;5.00;;;;;;;;5183228;27;11441;-75
2021/12/22 13:20:41;;;;;;;;;8.00;8.00;;;;;;;;5184281;27;11450;-74
2021/12/22 13:23:12;;;;;;;;;5.00;5.00;;;;;;;;5151243;27;11573;-76
2021/12/22 13:25:38;;;;;;;;;5.75;5.50;;;;;;;;5161002;27;11457;-80
2021/12/22 13:28:05;;;;;;;;;5.00;5.00;;;;;;;;5160750;27;11602;-90
2021/12/22 13:30:30;;;;;;;;;7.75;7.50;;;;;;;;5177250;27;11478;-91
2021/12/22 13:32:56;;;;;;;;;6.00;6.00;;;;;;;;5184660;27;11437;-83
2021/12/22 13:35:31;;;;;;;;;6.00;5.00;;;;;;;;5174272;27;11292;-80
2021/12/22 13:37:57;;;;;;;;;5.75;5.75;;;;;;;;5147176;27;9805;-83
2021/12/22 13:40:33;;;;;;;;;5.25;5.25;;;;;;;;5172216;27;11546;-79
2021/12/22 13:42:58;;;;;;;;;6.25;6.25;;;;;;;;5172753;27;8839;-83
2021/12/22 13:45:24;;;;;;;;;7.50;7.50;;;;;;;;5152508;27;11497;-85
2021/12/22 13:47:49;;;;;;;;;5.00;5.00;;;;;;;;5172180;27;11354;-92
2021/12/22 13:50:14;;;;;;;;;8.50;7.50;;;;;;;;5173498;27;11555;-90
2021/12/22 13:52:40;;;;;;;;;6.25;5.75;;;;;;;;5168505;27;11534;-83
2021/12/22 13:55:05;;;;;;;;;6.25;6.25;;;;;;;;5171057;27;11344;-88
2021/12/22 13:57:30;;;;;;;;;9.25;6.25;;;;;;;;5171521;27;8795;-88
2021/12/22 13:59:56;;;;;;;;;5.75;5.75;;;;;;;;5168988;27;8860;-87
2021/12/22 14:02:31;;;;;;;;;5.75;5.75;;;;;;;;5171720;27;11186;-91
2021/12/22 14:05:10;;;;;;;;;8.00;6.00;;;;;;;;5170560;27;8800;-85
2021/12/22 14:07:36;;;;;;;;;9.50;6.25;;;;;;;;5171269;27;11659;-85
2021/12/22 14:10:09;;;;;;;;;10.00;8.50;;;;;;;;5169122;27;11577;-83
2021/12/22 14:12:34;;;;;;;;;8.75;6.25;;;;;;;;5157886;27;23889;-80
2021/12/22 14:15:00;;;;;;;;;5.50;5.50;;;;;;;;5170243;27;21403;-84
2021/12/22 14:17:31;;;;;;;;;6.00;5.50;;;;;;;;5172916;27;11513;-85
2021/12/22 14:19:58;;;;;;;;;8.00;7.50;;;;;;;;5172259;27;11627;-88
2021/12/22 14:22:26;;;;;;;;;8.00;8.00;;;;;;;;5172793;27;11515;-85
2021/12/22 14:24:56;;;;;;;;;8.50;6.75;;;;;;;;5167944;27;11622;-83
2021/12/22 14:27:48;;;;;;;;;5.00;5.00;;;;;;;;5169405;27;11659;-81
2021/12/22 14:30:20;;;;;;;;;9.50;7.75;;;;;;;;5171460;27;12419;-81
2021/12/22 14:32:51;;;;;;;;;8.00;6.25;;;;;;;;5170299;27;11848;-81
2021/12/22 14:35:19;;;;;;;;;7.50;7.50;;;;;;;;5167150;27;11442;-80
2021/12/22 14:37:45;;;;;;;;;8.75;8.00;;;;;;;;5164895;27;11557;-82
2021/12/22 14:40:15;;;;;;;;;5.00;5.00;;;;;;;;5161757;27;11446;-81
2021/12/22 14:42:40;;;;;;;;;6.00;6.00;;;;;;;;5161979;27;11788;-80
2021/12/22 14:45:19;;;;;;;;;9.00;6.50;;;;;;;;5167088;27;11479;-82
2021/12/22 14:47:59;;;;;;;;;7.25;6.25;;;;;;;;5164429;27;12155;-79
2021/12/22 14:50:24;;;;;;;;;6.25;6.25;;;;;;;;5171117;27;12495;-81
2021/12/22 14:52:54;;;;;;;;;8.25;5.25;;;;;;;;5171484;27;11462;-81
2021/12/22 14:55:33;;;;;;;;;7.75;4.75;;;;;;;;5173085;27;8982;-82
2021/12/22 14:57:58;;;;;;;;;9.75;6.50;;;;;;;;5182490;27;11422;-80
2021/12/22 15:00:23;;;;;;;;;8.25;8.25;;;;;;;;5170548;27;11649;-76
2021/12/22 15:02:49;;;;;;;;;7.00;7.00;;;;;;;;5172095;27;11313;-81
2021/12/22 15:05:14;;;;;;;;;8.25;8.25;;;;;;;;5154146;27;11652;-82
2021/12/22 15:07:40;;;;;;;;;8.00;8.00;;;;;;;;5173625;27;11498;-82
2021/12/22 15:10:05;;;;;;;;;9.50;8.75;;;;;;;;5169050;27;9006;-84
2021/12/22 15:12:30;;;;;;;;;8.75;8.75;;;;;;;;5171048;27;11314;-78
2021/12/22 15:14:55;;;;;;;;;8.00;7.00;;;;;;;;5150219;27;11044;-78
2021/12/22 15:17:21;;;;;;;;;9.50;9.00;;;;;;;;5170145;27;10787;-79
2021/12/22 15:19:46;;;;;;;;;8.00;8.00;;;;;;;;5170458;27;11934;-80
2021/12/22 15:22:11;;;;;;;;;4.50;4.50;;;;;;;;5168881;27;10317;-80
2021/12/22 15:24:36;;;;;;;;;11.00;9.00;;;;;;;;5170104;27;11368;-82
2021/12/22 15:27:02;;;;;;;;;11.00;9.00;;;;;;;;5170319;27;21561;-78
2021/12/22 15:29:27;;;;;;;;;14.00;9.75;;;;;;;;5172787;27;8841;-78
2021/12/22 15:31:52;;;;;;;;;8.00;8.00;;;;;;;;5150394;27;10831;-82
2021/12/22 15:34:18;;;;;;;;;13.00;11.25;;;;;;;;5174578;27;21888;-84
2021/12/22 15:36:43;;;;;;;;;11.50;9.75;;;;;;;;5170614;27;22250;-81
2021/12/22 15:39:08;;;;;;;;;9.00;9.00;;;;;;;;5170380;27;22612;-85
2021/12/22 15:41:34;;;;;;;;;9.00;9.00;;;;;;;;5168422;27;21530;-80
2021/12/22 15:43:59;;;;;;;;;15.00;10.00;;;;;;;;5172361;27;8810;-79
2021/12/22 15:46:24;;;;;;;;;9.50;9.00;;;;;;;;5168994;27;22286;-79
2021/12/22 15:48:50;;;;;;;;;12.00;9.75;;;;;;;;5173915;27;22681;-80
2021/12/22 15:51:15;;;;;;;;;15.25;12.00;;;;;;;;5171603;27;21523;-74
2021/12/22 15:53:40;;;;;;;;;10.25;10.00;;;;;;;;5172980;27;22543;-81
2021/12/22 15:56:05;;;;;;;;;9.00;8.25;;;;;;;;5181900;27;13382;-68
2021/12/22 15:58:31;;;;;;;;;9.75;9.25;;;;;;;;5184024;27;22150;-74
2021/12/22 16:00:57;;;;;;;;;8.50;8.50;;;;;;;;5185625;27;9694;-74
2021/12/22 16:03:22;;;;;;;;;10.75;10.25;;;;;;;;5181804;27;11912;-81
2021/12/22 16:05:47;;;;;;;;;8.75;8.00;;;;;;;;5168151;27;23053;-77
2021/12/22 16:09:18;;;;;;;;;10.00;9.00;;;;;;;;5216509;27;77857;-72
2021/12/22 16:11:43;;;;;;;;;12.75;10.75;;;;;;;;5199059;27;21465;-71
2021/12/22 16:14:08;;;;;;;;;11.50;11.50;;;;;;;;5198651;27;21470;-72
2021/12/22 16:16:34;;;;;;;;;9.50;9.00;;;;;;;;5199032;27;11480;-73
2021/12/22 16:18:59;;;;;;;;;9.50;9.00;;;;;;;;5179406;27;24631;-73
2021/12/22 16:21:24;;;;;;;;;9.25;8.00;;;;;;;;5198993;27;8807;-73
2021/12/22 16:23:51;;;;;;;;;10.50;9.00;;;;;;;;5199224;27;9451;-72
2021/12/22 16:26:17;;;;;;;;;13.25;10.75;;;;;;;;5198525;27;21633;-73
2021/12/22 16:28:42;;;;;;;;;11.50;11.50;;;;;;;;5198408;27;21506;-71
2021/12/22 16:31:07;;;;;;;;;10.00;10.00;;;;;;;;5199315;27;11530;-78
2021/12/22 16:33:32;;;;;;;;;13.50;13.00;;;;;;;;5199247;27;12515;-80
2021/12/22 16:35:58;;;;;;;;;12.00;12.00;;;;;;;;5198880;27;10497;-80
2021/12/22 16:38:23;;;;;;;;;11.00;10.50;;;;;;;;5194961;27;10854;-76
2021/12/22 16:40:51;;;;;;;;;13.50;11.00;;;;;;;;5185334;27;11656;-78
2021/12/22 16:43:17;;;;;;;;;13.00;10.25;;;;;;;;5187325;27;11504;-76
2021/12/22 16:45:42;;;;;;;;;10.00;10.00;;;;;;;;5187013;27;12331;-76
2021/12/22 16:48:07;;;;;;;;;15.25;13.50;;;;;;;;5182555;27;11512;-77
2021/12/22 16:50:33;;;;;;;;;18.25;15.00;;;;;;;;5174448;27;11576;-76
2021/12/22 16:52:58;;;;;;;;;14.00;14.00;;;;;;;;5175489;27;13008;-77
2021/12/22 16:55:24;;;;;;;;;20.75;18.00;;;;;;;;5156968;27;12744;-76
2021/12/22 16:57:52;;;;;;;;;19.25;17.50;;;;;;;;5176247;27;12317;-77
2021/12/22 17:00:20;;;;;;;;;21.25;17.75;;;;;;;;5176965;27;13538;-77
2021/12/22 17:02:45;;;;;;;;;14.50;14.50;;;;;;;;5176578;27;13955;-77
2021/12/22 17:05:12;;;;;;;;;24.00;21.75;;;;;;;;5177484;27;13273;-78
2021/12/22 17:07:38;;;;;;;;;25.75;23.00;;;;;;;;5176470;27;13460;-78
2021/12/22 17:10:04;;;;;;;;;21.25;19.25;;;;;;;;5176320;27;11528;-77
2021/12/22 17:12:29;;;;;;;;;27.25;24.25;;;;;;;;5176664;27;12182;-77
2021/12/22 17:14:55;;;;;;;;;29.33;25.33;;;;;;;;5176611;27;10358;-78
2021/12/22 17:17:22;;;;;;;;;27.25;23.00;;;;;;;;5177165;27;9542;-78
2021/12/22 17:19:48;;;;;;;;;25.00;20.50;;;;;;;;5167951;27;11433;-82
2021/12/22 17:22:13;;;;;;;;;24.50;22.25;;;;;;;;5144061;27;14604;-80
2021/12/22 17:24:38;;;;;;;;;30.33;28.33;;;;;;;;5144285;27;12576;-81
2021/12/22 17:27:04;;;;;;;;;26.67;25.00;;;;;;;;5162910;27;12346;-81
2021/12/22 17:29:29;;;;;;;;;32.33;27.33;;;;;;;;5162639;27;13254;-82
2021/12/22 17:31:56;;;;;;;;;31.00;26.00;;;;;;;;5163380;27;13827;-81
2021/12/22 17:34:22;;;;;;;;;28.00;25.00;;;;;;;;5163365;27;11510;-81
2021/12/22 17:36:47;;;;;;;;;25.00;24.00;;;;;;;;5162115;27;12303;-78
2021/12/22 17:39:13;;;;;;;;;30.00;26.00;;;;;;;;5163514;27;8849;-88
2021/12/22 17:41:38;;;;;;;;;26.67;25.00;;;;;;;;5164283;27;11163;-79
2021/12/22 17:44:11;;;;;;;;;32.00;29.33;;;;;;;;5144292;27;12403;-84
2021/12/22 17:46:37;;;;;;;;;30.33;26.00;;;;;;;;5144569;27;15974;-90
2021/12/22 17:49:11;;;;;;;;;25.67;25.00;;;;;;;;5164633;27;11596;-90
2021/12/22 17:51:36;;;;;;;;;31.00;26.00;;;;;;;;5164016;27;12339;-77
2021/12/22 17:54:03;;;;;;;;;27.33;21.67;;;;;;;;5167366;27;12173;-83
2021/12/22 17:56:31;;;;;;;;;28.67;25.33;;;;;;;;5177122;27;14548;-83
2021/12/22 17:58:58;;;;;;;;;30.00;25.00;;;;;;;;5172400;27;11731;-81
2021/12/22 18:01:25;;;;;;;;;29.00;25.00;;;;;;;;5170802;27;13550;-79
2021/12/22 18:03:51;;;;;;;;;25.00;20.67;;;;;;;;5173264;27;11476;-82
2021/12/22 18:08:44;;;;;;;;;24.33;23.00;;;;;;;;5170604;27;8952;-84
2021/12/22 18:11:11;;;;;;;;;33.00;28.33;;;;;;;;5173014;27;10676;-84
2021/12/22 18:13:36;;;;;;;;;23.67;21.33;;;;;;;;5172247;27;13522;-80
2021/12/22 18:16:01;;;;;;;;;28.33;25.33;;;;;;;;5171210;27;13324;-81
2021/12/22 18:18:27;;;;;;;;;28.33;26.33;;;;;;;;5172734;27;10617;-77
2021/12/22 18:20:52;;;;;;;;;27.00;24.67;;;;;;;;5171289;27;8802;-78
2021/12/22 18:23:17;;;;;;;;;21.67;18.00;;;;;;;;5173219;27;12491;-77
2021/12/22 18:25:43;;;;;;;;;27.67;24.00;;;;;;;;5169921;27;12550;-79
2021/12/22 18:28:08;;;;;;;;;27.67;24.00;;;;;;;;5168773;27;9780;-79
2021/12/22 18:30:36;;;;;;;;;32.33;25.33;;;;;;;;5170729;27;8779;-79
2021/12/22 18:33:02;;;;;;;;;25.00;24.00;;;;;;;;5171007;27;13310;-78
2021/12/22 18:35:29;;;;;;;;;32.33;24.00;;;;;;;;5169356;27;13459;-80
2021/12/22 18:40:59;;;;;;;;;27.00;21.33;;;;;;;;5134729;27;8787;-80
2021/12/22 18:43:25;;;;;;;;;28.00;26.33;;;;;;;;5173300;27;11503;-79
2021/12/22 18:45:52;;;;;;;;;34.00;29.33;;;;;;;;5170856;27;9208;-78
2021/12/22 18:48:18;;;;;;;;;28.67;27.00;;;;;;;;5170448;27;10933;-77
2021/12/22 18:50:44;;;;;;;;;29.33;26.67;;;;;;;;5170624;27;14879;-81
2021/12/22 18:53:10;;;;;;;;;28.33;27.00;;;;;;;;5153639;27;13874;-84
2021/12/22 18:55:35;;;;;;;;;28.33;25.67;;;;;;;;5169961;27;11740;-84
2021/12/22 18:58:01;;;;;;;;;21.33;18.67;;;;;;;;5160233;27;9248;-82
2021/12/22 19:00:26;;;;;;;;;31.33;28.33;;;;;;;;5162877;27;12074;-81
2021/12/22 19:02:53;;;;;;;;;32.67;31.33;;;;;;;;5161958;27;13452;-74
2021/12/22 19:05:18;;;;;;;;;32.00;28.67;;;;;;;;5177534;27;11497;-75
2021/12/22 19:07:44;;;;;;;;;53.33;40.00;;;;;;;;5142966;27;12753;-78
2021/12/22 19:10:15;;;;;;;;;46.67;39.00;;;;;;;;5162206;27;15441;-85
2021/12/22 19:12:44;;;;;;;;;42.00;35.00;;;;;;;;5183491;27;12379;-85
2021/12/22 19:15:11;;;;;;;;;51.67;44.67;;;;;;;;5185764;27;11125;-86
2021/12/22 19:17:37;;;;;;;;;52.33;43.33;;;;;;;;5165934;27;13847;-86
2021/12/22 19:20:03;;;;;;;;;59.67;44.67;;;;;;;;5187276;27;12753;-76
2021/12/22 19:22:32;;;;;;;;;52.00;42.00;;;;;;;;5190618;27;11463;-77
2021/12/22 19:24:57;;;;;;;;;49.33;40.00;;;;;;;;5187037;27;12754;-79
2021/12/22 19:27:22;;;;;;;;;51.33;42.33;;;;;;;;5166021;27;14113;-76
2021/12/22 19:29:48;;;;;;;;;56.00;45.33;;;;;;;;5184027;27;13237;-77
2021/12/22 19:32:13;;;;;;;;;41.33;38.00;;;;;;;;5182014;27;10400;-78
2021/12/22 19:34:38;;;;;;;;;54.33;43.33;;;;;;;;5178308;27;14056;-75
2021/12/22 19:37:04;;;;;;;;;56.33;44.00;;;;;;;;5159259;27;15105;-74
2021/12/22 19:39:31;;;;;;;;;58.33;44.33;;;;;;;;5181559;27;11391;-78
2021/12/22 19:41:57;;;;;;;;;58.00;43.67;;;;;;;;5180611;27;12082;-77
2021/12/22 19:44:23;;;;;;;;;44.33;37.33;;;;;;;;5180854;27;10434;-75
2021/12/22 19:46:48;;;;;;;;;49.67;39.33;;;;;;;;5177797;27;13256;-76
2021/12/22 19:49:13;;;;;;;;;60.67;48.00;;;;;;;;5177835;27;10576;-79
2021/12/22 19:51:39;;;;;;;;;55.33;42.33;;;;;;;;5181878;27;13477;-77
2021/12/22 19:55:11;;;;;;;;;52.00;42.67;;;;;;;;5184982;27;77056;-79
2021/12/22 19:57:38;;;;;;;;;48.33;43.00;;;;;;;;5147144;27;24640;-80
2021/12/22 20:00:09;;;;;;;;;55.33;43.67;;;;;;;;5168521;27;13897;-80
2021/12/22 20:02:34;;;;;;;;;55.67;43.67;;;;;;;;5173101;27;13875;-79
2021/12/22 20:05:00;;;;;;;;;61.67;48.00;;;;;;;;5168153;27;8914;-80
2021/12/22 20:07:25;;;;;;;;;59.33;49.33;;;;;;;;5169007;27;13270;-84
2021/12/22 20:09:50;;;;;;;;;55.67;45.33;;;;;;;;5169003;27;13228;-75
2021/12/22 20:12:16;;;;;;;;;56.00;43.00;;;;;;;;5168563;27;10349;-75
2021/12/22 20:14:41;;;;;;;;;43.33;39.67;;;;;;;;5168435;27;12616;-76
2021/12/22 20:17:06;;;;;;;;;58.00;44.00;;;;;;;;5164959;27;13408;-74
2021/12/22 20:19:32;;;;;;;;;51.67;41.33;;;;;;;;5167864;27;13368;-75
2021/12/22 20:21:58;;;;;;;;;49.67;40.00;;;;;;;;5170874;27;12116;-73
2021/12/22 20:24:24;;;;;;;;;55.33;41.67;;;;;;;;5167746;27;13286;-77
2021/12/22 20:26:49;;;;;;;;;61.00;48.00;;;;;;;;5168999;27;13761;-81
2021/12/22 20:29:15;;;;;;;;;56.67;44.67;;;;;;;;5166529;27;13741;-81
2021/12/22 20:31:40;;;;;;;;;57.33;47.67;;;;;;;;5157209;27;13542;-78
2021/12/22 20:34:05;;;;;;;;;54.67;45.00;;;;;;;;5157325;27;10868;-81
2021/12/22 20:36:31;;;;;;;;;54.00;42.67;;;;;;;;5157748;27;11403;-81
2021/12/22 20:38:57;;;;;;;;;50.33;42.67;;;;;;;;5156137;27;10450;-80
2021/12/22 20:41:22;;;;;;;;;47.33;42.00;;;;;;;;5157390;27;9428;-80
2021/12/22 20:43:47;;;;;;;;;57.00;44.00;;;;;;;;5157026;27;13252;-80
2021/12/22 20:46:16;;;;;;;;;51.67;41.67;;;;;;;;5157101;27;12762;-83
2021/12/22 20:48:45;;;;;;;;;51.00;44.00;;;;;;;;5164786;27;11691;-83
2021/12/22 20:51:11;;;;;;;;;56.00;43.67;;;;;;;;5147534;27;12460;-81
2021/12/22 20:53:37;;;;;;;;;43.33;40.00;;;;;;;;5165387;27;12057;-79
2021/12/22 20:56:03;;;;;;;;;45.67;40.33;;;;;;;;5167969;27;14201;-78
2021/12/22 20:58:28;;;;;;;;;46.33;40.00;;;;;;;;5170514;27;12032;-82
2021/12/22 21:00:54;;;;;;;;;45.33;42.00;;;;;;;;5167222;27;11909;-82
2021/12/22 21:03:21;;;;;;;;;44.33;38.00;;;;;;;;5147169;27;11409;-85
2021/12/22 21:05:50;;;;;;;;;39.00;34.00;;;;;;;;5146523;27;11665;-80
2021/12/22 21:08:16;;;;;;;;;47.00;37.00;;;;;;;;5162020;27;12818;-84
2021/12/22 21:10:44;;;;;;;;;39.00;34.00;;;;;;;;5142847;27;12928;-83
2021/12/22 21:13:12;;;;;;;;;36.67;31.33;;;;;;;;5161426;27;10769;-81
2021/12/22 21:15:38;;;;;;;;;39.33;37.67;;;;;;;;5161203;27;11567;-79
2021/12/22 21:18:06;;;;;;;;;43.00;38.00;;;;;;;;5161573;27;11984;-83
2021/12/22 21:20:32;;;;;;;;;52.00;42.00;;;;;;;;5158536;27;13377;-80
2021/12/22 21:22:58;;;;;;;;;38.33;36.00;;;;;;;;5153295;27;10626;-79
2021/12/22 21:25:23;;;;;;;;;40.33;33.00;;;;;;;;5156484;27;12268;-73
2021/12/22 21:27:51;;;;;;;;;37.00;34.67;;;;;;;;5150004;27;10390;-72
2021/12/22 21:30:17;;;;;;;;;43.33;37.00;;;;;;;;5148761;27;13375;-72
2021/12/22 21:32:43;;;;;;;;;44.00;39.00;;;;;;;;5142521;27;15643;-72
2021/12/22 21:35:08;;;;;;;;;43.00;35.67;;;;;;;;5161549;27;10368;-72
2021/12/22 21:37:34;;;;;;;;;39.67;34.00;;;;;;;;5162510;27;11385;-72
2021/12/22 21:39:59;;;;;;;;;37.33;32.33;;;;;;;;5161815;27;13650;-72
2021/12/22 21:42:25;;;;;;;;;39.00;35.33;;;;;;;;5162595;27;11682;-71
2021/12/22 21:44:51;;;;;;;;;34.33;31.67;;;;;;;;5162619;27;10420;-71